sensor_id;sensor_type;location;lat;lon;timestamp;pressure;altitude;pressure_sealevel;temperature;humidity
59329;BME280;45100;46.926;7.452;2023-07-24T00:02:13;94747.26;;;22.68;54.12
59329;BME280;45100;46.926;7.452;2023-07-24T00:04:41;94751.73;;;22.65;54.11
59329;BME280;45100;46.926;7.452;2023-07-24T00:07:12;94750.09;;;22.60;54.05
59329;BME280;45100;46.926;7.452;2023-07-24T00:09:42;94751.05;;;22.56;54.10
59329;BME280;45100;46.926;7.452;2023-07-24T00:12:13;94747.55;;;22.52;54.26
59329;BME280;45100;46.926;7.452;2023-07-24T00:14:44;94743.59;;;22.50;54.89
59329;BME280;45100;46.926;7.452;2023-07-24T00:17:15;94740.82;;;22.49;54.70
59329;BME280;45100;46.926;7.452;2023-07-24T00:19:46;94736.73;;;22.46;54.85
59329;BME280;45100;46.926;7.452;2023-07-24T00:22:17;94740.45;;;22.42;55.21
59329;BME280;45100;46.926;7.452;2023-07-24T00:24:47;94735.64;;;22.40;55.25
59329;BME280;45100;46.926;7.452;2023-07-24T00:27:18;94726.08;;;22.39;55.26
59329;BME280;45100;46.926;7.452;2023-07-24T00:29:49;94725.69;;;22.37;55.60
59329;BME280;45100;46.926;7.452;2023-07-24T00:32:19;94719.23;;;22.34;56.02
59329;BME280;45100;46.926;7.452;2023-07-24T00:34:50;94717.75;;;22.33;56.11
59329;BME280;45100;46.926;7.452;2023-07-24T00:37:21;94707.94;;;22.32;56.48
59329;BME280;45100;46.926;7.452;2023-07-24T00:39:52;94704.94;;;22.30;56.35
59329;BME280;45100;46.926;7.452;2023-07-24T00:42:22;94710.55;;;22.23;56.66
59329;BME280;45100;46.926;7.452;2023-07-24T00:44:52;94695.92;;;22.13;56.94
59329;BME280;45100;46.926;7.452;2023-07-24T00:47:25;94685.20;;;22.03;57.36
59329;BME280;45100;46.926;7.452;2023-07-24T00:49:55;94681.95;;;21.94;57.55
59329;BME280;45100;46.926;7.452;2023-07-24T00:52:24;94682.88;;;21.86;57.07
59329;BME280;45100;46.926;7.452;2023-07-24T00:54:54;94677.47;;;21.79;56.74
59329;BME280;45100;46.926;7.452;2023-07-24T00:57:25;94678.41;;;21.75;56.93
59329;BME280;45100;46.926;7.452;2023-07-24T00:59:55;94673.06;;;21.72;57.05
59329;BME280;45100;46.926;7.452;2023-07-24T01:02:27;94671.34;;;21.68;57.13
59329;BME280;45100;46.926;7.452;2023-07-24T01:04:56;94674.75;;;21.66;57.48
59329;BME280;45100;46.926;7.452;2023-07-24T01:07:26;94673.42;;;21.60;58.19
59329;BME280;45100;46.926;7.452;2023-07-24T01:09:56;94666.38;;;21.48;58.85
59329;BME280;45100;46.926;7.452;2023-07-24T01:12:51;94667.79;;;21.37;59.69
59329;BME280;45100;46.926;7.452;2023-07-24T01:15:11;94661.20;;;21.26;60.67
59329;BME280;45100;46.926;7.452;2023-07-24T01:17:30;94659.73;;;21.14;61.50
59329;BME280;45100;46.926;7.452;2023-07-24T01:19:59;94656.08;;;21.01;62.10
59329;BME280;45100;46.926;7.452;2023-07-24T01:22:39;94658.05;;;20.92;62.67
59329;BME280;45100;46.926;7.452;2023-07-24T01:25:23;94656.44;;;20.81;63.28
59329;BME280;45100;46.926;7.452;2023-07-24T01:27:29;94648.82;;;20.76;63.54
59329;BME280;45100;46.926;7.452;2023-07-24T01:29:59;94651.28;;;20.74;63.50
59329;BME280;45100;46.926;7.452;2023-07-24T01:32:30;94653.77;;;20.70;63.74
59329;BME280;45100;46.926;7.452;2023-07-24T01:35:01;94649.20;;;20.64;64.15
59329;BME280;45100;46.926;7.452;2023-07-24T01:37:34;94644.73;;;20.54;64.51
59329;BME280;45100;46.926;7.452;2023-07-24T01:40:03;94640.14;;;20.46;65.08
59329;BME280;45100;46.926;7.452;2023-07-24T01:42:34;94630.85;;;20.41;65.21
59329;BME280;45100;46.926;7.452;2023-07-24T01:45:04;94621.19;;;20.35;65.21
59329;BME280;45100;46.926;7.452;2023-07-24T01:47:34;94614.75;;;20.30;65.58
59329;BME280;45100;46.926;7.452;2023-07-24T01:50:06;94616.08;;;20.23;65.37
59329;BME280;45100;46.926;7.452;2023-07-24T01:52:36;94604.08;;;20.17;65.19
59329;BME280;45100;46.926;7.452;2023-07-24T01:55:07;94597.44;;;20.13;65.34
59329;BME280;45100;46.926;7.452;2023-07-24T01:57:36;94591.44;;;20.09;65.59
59329;BME280;45100;46.926;7.452;2023-07-24T02:00:07;94593.23;;;20.05;65.90
59329;BME280;45100;46.926;7.452;2023-07-24T02:02:37;94589.20;;;19.99;66.23
59329;BME280;45100;46.926;7.452;2023-07-24T02:05:08;94592.56;;;19.94;66.66
59329;BME280;45100;46.926;7.452;2023-07-24T02:07:38;94597.68;;;19.91;66.68
59329;BME280;45100;46.926;7.452;2023-07-24T02:10:09;94594.09;;;19.89;66.60
59329;BME280;45100;46.926;7.452;2023-07-24T02:12:38;94597.59;;;19.89;66.75
59329;BME280;45100;46.926;7.452;2023-07-24T02:15:10;94595.39;;;19.90;66.54
59329;BME280;45100;46.926;7.452;2023-07-24T02:20:13;94603.11;;;19.84;66.78
59329;BME280;45100;46.926;7.452;2023-07-24T02:22:43;94605.91;;;19.83;66.66
59329;BME280;45100;46.926;7.452;2023-07-24T02:25:13;94609.23;;;19.84;66.54
59329;BME280;45100;46.926;7.452;2023-07-24T02:27:43;94605.19;;;19.84;66.13
59329;BME280;45100;46.926;7.452;2023-07-24T02:30:14;94604.66;;;19.83;66.05
59329;BME280;45100;46.926;7.452;2023-07-24T02:32:45;94602.08;;;19.78;65.68
59329;BME280;45100;46.926;7.452;2023-07-24T02:35:15;94601.21;;;19.77;65.83
59329;BME280;45100;46.926;7.452;2023-07-24T02:37:45;94601.05;;;19.77;65.74
59329;BME280;45100;46.926;7.452;2023-07-24T02:40:17;94598.73;;;19.76;65.41
59329;BME280;45100;46.926;7.452;2023-07-24T02:42:46;94602.75;;;19.76;65.37
59329;BME280;45100;46.926;7.452;2023-07-24T02:45:18;94592.19;;;19.75;65.36
59329;BME280;45100;46.926;7.452;2023-07-24T02:47:48;94592.64;;;19.74;65.56
59329;BME280;45100;46.926;7.452;2023-07-24T02:50:19;94595.25;;;19.75;65.38
59329;BME280;45100;46.926;7.452;2023-07-24T02:52:49;94592.86;;;19.79;65.23
59329;BME280;45100;46.926;7.452;2023-07-24T02:55:19;94591.05;;;19.86;64.75
59329;BME280;45100;46.926;7.452;2023-07-24T02:57:49;94587.64;;;19.92;64.27
59329;BME280;45100;46.926;7.452;2023-07-24T03:00:20;94575.50;;;19.95;63.64
59329;BME280;45100;46.926;7.452;2023-07-24T03:02:50;94572.48;;;19.98;63.21
59329;BME280;45100;46.926;7.452;2023-07-24T03:05:20;94568.99;;;19.98;62.91
59329;BME280;45100;46.926;7.452;2023-07-24T03:07:50;94558.72;;;19.95;62.68
59329;BME280;45100;46.926;7.452;2023-07-24T03:10:21;94556.44;;;19.92;62.68
59329;BME280;45100;46.926;7.452;2023-07-24T03:12:51;94561.72;;;19.90;62.36
59329;BME280;45100;46.926;7.452;2023-07-24T03:15:23;94569.88;;;19.92;62.05
59329;BME280;45100;46.926;7.452;2023-07-24T03:17:53;94583.14;;;19.96;61.97
59329;BME280;45100;46.926;7.452;2023-07-24T03:20:23;94581.39;;;20.00;61.91
59329;BME280;45100;46.926;7.452;2023-07-24T03:22:53;94592.27;;;20.06;61.96
59329;BME280;45100;46.926;7.452;2023-07-24T03:25:24;94598.78;;;20.11;62.26
59329;BME280;45100;46.926;7.452;2023-07-24T03:27:55;94603.80;;;20.15;62.02
59329;BME280;45100;46.926;7.452;2023-07-24T03:30:26;94616.98;;;20.18;61.85
59329;BME280;45100;46.926;7.452;2023-07-24T03:32:56;94642.23;;;20.21;62.01
59329;BME280;45100;46.926;7.452;2023-07-24T03:35:26;94666.35;;;20.24;62.24
59329;BME280;45100;46.926;7.452;2023-07-24T03:37:57;94686.02;;;20.29;64.15
59329;BME280;45100;46.926;7.452;2023-07-24T03:40:28;94717.94;;;20.32;65.23
59329;BME280;45100;46.926;7.452;2023-07-24T03:42:59;94769.83;;;20.35;66.19
59329;BME280;45100;46.926;7.452;2023-07-24T03:45:31;94799.85;;;20.36;67.59
59329;BME280;45100;46.926;7.452;2023-07-24T03:48:00;94834.64;;;20.35;69.36
59329;BME280;45100;46.926;7.452;2023-07-24T03:50:31;94876.53;;;20.35;70.94
59329;BME280;45100;46.926;7.452;2023-07-24T03:53:01;94901.05;;;20.34;72.71
59329;BME280;45100;46.926;7.452;2023-07-24T03:55:31;94914.86;;;20.29;75.12
59329;BME280;45100;46.926;7.452;2023-07-24T03:58:01;94932.19;;;20.19;77.83
59329;BME280;45100;46.926;7.452;2023-07-24T04:00:32;94959.05;;;20.07;80.98
59329;BME280;45100;46.926;7.452;2023-07-24T04:03:02;94945.48;;;19.89;82.81
59329;BME280;45100;46.926;7.452;2023-07-24T04:05:34;94971.82;;;19.73;84.33
59329;BME280;45100;46.926;7.452;2023-07-24T04:08:04;94987.73;;;19.62;85.50
59329;BME280;45100;46.926;7.452;2023-07-24T04:13:08;94962.85;;;19.38;86.72
59329;BME280;45100;46.926;7.452;2023-07-24T04:15:39;94952.55;;;19.31;86.94
59329;BME280;45100;46.926;7.452;2023-07-24T04:18:08;94946.47;;;19.30;87.96
59329;BME280;45100;46.926;7.452;2023-07-24T04:20:40;94921.04;;;19.32;87.89
59329;BME280;45100;46.926;7.452;2023-07-24T04:23:09;94902.52;;;19.38;87.50
59329;BME280;45100;46.926;7.452;2023-07-24T04:25:40;94867.80;;;19.44;87.23
59329;BME280;45100;46.926;7.452;2023-07-24T04:28:11;94820.84;;;19.48;84.46
59329;BME280;45100;46.926;7.452;2023-07-24T04:30:42;94798.84;;;19.47;83.99
59329;BME280;45100;46.926;7.452;2023-07-24T04:33:13;94768.73;;;19.42;84.10
59329;BME280;45100;46.926;7.452;2023-07-24T04:35:43;94745.19;;;19.34;84.22
59329;BME280;45100;46.926;7.452;2023-07-24T04:38:14;94742.45;;;19.34;84.83
59329;BME280;45100;46.926;7.452;2023-07-24T04:43:18;94775.21;;;19.31;85.21
59329;BME280;45100;46.926;7.452;2023-07-24T04:45:48;94782.64;;;19.20;85.49
59329;BME280;45100;46.926;7.452;2023-07-24T04:48:19;94783.50;;;19.12;86.62
59329;BME280;45100;46.926;7.452;2023-07-24T04:50:56;94776.80;;;19.05;87.78
59329;BME280;45100;46.926;7.452;2023-07-24T04:53:21;94763.03;;;19.00;89.00
59329;BME280;45100;46.926;7.452;2023-07-24T04:55:51;94768.16;;;19.03;90.06
59329;BME280;45100;46.926;7.452;2023-07-24T04:58:22;94767.86;;;19.08;90.07
59329;BME280;45100;46.926;7.452;2023-07-24T05:00:53;94780.82;;;19.13;90.51
59329;BME280;45100;46.926;7.452;2023-07-24T05:03:23;94807.30;;;19.16;90.83
59329;BME280;45100;46.926;7.452;2023-07-24T05:05:54;94828.10;;;19.17;90.76
59329;BME280;45100;46.926;7.452;2023-07-24T05:08:25;94825.87;;;19.16;90.60
59329;BME280;45100;46.926;7.452;2023-07-24T05:10:57;94818.23;;;19.15;90.85
59329;BME280;45100;46.926;7.452;2023-07-24T05:13:27;94786.30;;;19.16;89.94
59329;BME280;45100;46.926;7.452;2023-07-24T05:15:58;94749.77;;;19.21;87.98
59329;BME280;45100;46.926;7.452;2023-07-24T05:18:29;94739.77;;;19.27;84.78
59329;BME280;45100;46.926;7.452;2023-07-24T05:20:59;94725.54;;;19.37;83.08
59329;BME280;45100;46.926;7.452;2023-07-24T05:23:30;94704.09;;;19.47;81.60
59329;BME280;45100;46.926;7.452;2023-07-24T05:26:02;94705.23;;;19.54;81.28
59329;BME280;45100;46.926;7.452;2023-07-24T05:28:33;94693.12;;;19.60;82.00
59329;BME280;45100;46.926;7.452;2023-07-24T05:31:03;94696.77;;;19.61;82.13
59329;BME280;45100;46.926;7.452;2023-07-24T05:33:33;94682.20;;;19.56;82.47
59329;BME280;45100;46.926;7.452;2023-07-24T05:36:04;94669.27;;;19.52;83.08
59329;BME280;45100;46.926;7.452;2023-07-24T05:38:34;94679.39;;;19.48;83.25
59329;BME280;45100;46.926;7.452;2023-07-24T05:41:04;94685.36;;;19.50;83.62
59329;BME280;45100;46.926;7.452;2023-07-24T05:43:35;94678.50;;;19.55;83.55
59329;BME280;45100;46.926;7.452;2023-07-24T05:46:06;94668.44;;;19.63;82.94
59329;BME280;45100;46.926;7.452;2023-07-24T05:48:37;94657.09;;;19.73;82.10
59329;BME280;45100;46.926;7.452;2023-07-24T05:51:08;94660.75;;;19.84;81.79
59329;BME280;45100;46.926;7.452;2023-07-24T05:53:38;94664.73;;;19.99;80.45
59329;BME280;45100;46.926;7.452;2023-07-24T05:56:09;94668.34;;;20.13;80.50
59329;BME280;45100;46.926;7.452;2023-07-24T05:58:40;94666.12;;;20.30;80.27
59329;BME280;45100;46.926;7.452;2023-07-24T06:01:11;94659.50;;;20.44;80.14
59329;BME280;45100;46.926;7.452;2023-07-24T06:03:42;94666.27;;;20.59;79.85
59329;BME280;45100;46.926;7.452;2023-07-24T06:06:12;94664.98;;;20.68;81.08
59329;BME280;45100;46.926;7.452;2023-07-24T06:08:43;94674.55;;;20.70;81.58
59329;BME280;45100;46.926;7.452;2023-07-24T06:11:14;94682.86;;;20.72;82.31
59329;BME280;45100;46.926;7.452;2023-07-24T06:13:45;94682.25;;;20.69;82.11
59329;BME280;45100;46.926;7.452;2023-07-24T06:16:16;94681.70;;;20.72;82.22
59329;BME280;45100;46.926;7.452;2023-07-24T06:18:46;94706.97;;;20.80;80.35
59329;BME280;45100;46.926;7.452;2023-07-24T06:21:17;94704.38;;;20.86;80.66
59329;BME280;45100;46.926;7.452;2023-07-24T06:23:48;94713.84;;;20.85;79.86
59329;BME280;45100;46.926;7.452;2023-07-24T06:26:19;94713.28;;;20.84;80.09
59329;BME280;45100;46.926;7.452;2023-07-24T06:28:50;94716.58;;;20.84;80.28
59329;BME280;45100;46.926;7.452;2023-07-24T06:31:20;94723.44;;;20.83;80.60
59329;BME280;45100;46.926;7.452;2023-07-24T06:33:51;94729.22;;;20.84;81.70
59329;BME280;45100;46.926;7.452;2023-07-24T06:36:22;94732.80;;;20.85;82.64
59329;BME280;45100;46.926;7.452;2023-07-24T06:38:53;94734.86;;;20.81;82.43
59329;BME280;45100;46.926;7.452;2023-07-24T06:41:24;94722.03;;;20.74;81.44
59329;BME280;45100;46.926;7.452;2023-07-24T06:43:54;94727.57;;;20.69;81.02
59329;BME280;45100;46.926;7.452;2023-07-24T06:46:25;94727.25;;;20.66;81.62
59329;BME280;45100;46.926;7.452;2023-07-24T06:48:55;94732.56;;;20.63;81.31
59329;BME280;45100;46.926;7.452;2023-07-24T06:51:26;94745.27;;;20.59;82.34
59329;BME280;45100;46.926;7.452;2023-07-24T06:53:57;94759.11;;;20.57;83.61
59329;BME280;45100;46.926;7.452;2023-07-24T06:56:28;94760.39;;;20.55;84.70
59329;BME280;45100;46.926;7.452;2023-07-24T06:58:59;94768.02;;;20.47;85.21
59329;BME280;45100;46.926;7.452;2023-07-24T07:01:30;94771.05;;;20.42;86.30
59329;BME280;45100;46.926;7.452;2023-07-24T07:04:00;94746.55;;;20.38;86.37
59329;BME280;45100;46.926;7.452;2023-07-24T07:06:31;94739.45;;;20.30;85.73
59329;BME280;45100;46.926;7.452;2023-07-24T07:09:02;94721.00;;;20.24;86.16
59329;BME280;45100;46.926;7.452;2023-07-24T07:11:32;94706.64;;;20.20;87.31
59329;BME280;45100;46.926;7.452;2023-07-24T07:14:03;94690.34;;;20.17;87.68
59329;BME280;45100;46.926;7.452;2023-07-24T07:16:33;94674.17;;;20.17;87.56
59329;BME280;45100;46.926;7.452;2023-07-24T07:19:04;94663.82;;;20.18;87.88
59329;BME280;45100;46.926;7.452;2023-07-24T07:21:34;94646.17;;;20.22;88.06
59329;BME280;45100;46.926;7.452;2023-07-24T07:24:05;94634.73;;;20.29;88.70
59329;BME280;45100;46.926;7.452;2023-07-24T07:26:36;94630.11;;;20.35;88.50
59329;BME280;45100;46.926;7.452;2023-07-24T07:29:07;94638.38;;;20.45;88.08
59329;BME280;45100;46.926;7.452;2023-07-24T07:31:37;94618.20;;;20.58;88.08
59329;BME280;45100;46.926;7.452;2023-07-24T07:34:08;94602.05;;;20.71;86.53
59329;BME280;45100;46.926;7.452;2023-07-24T07:36:39;94609.14;;;20.84;84.22
59329;BME280;45100;46.926;7.452;2023-07-24T07:39:10;94610.15;;;20.99;83.03
59329;BME280;45100;46.926;7.452;2023-07-24T07:41:40;94608.17;;;21.17;82.12
59329;BME280;45100;46.926;7.452;2023-07-24T07:44:11;94605.34;;;21.32;79.94
59329;BME280;45100;46.926;7.452;2023-07-24T07:46:42;94619.86;;;21.42;78.74
59329;BME280;45100;46.926;7.452;2023-07-24T07:49:13;94640.52;;;21.57;79.25
59329;BME280;45100;46.926;7.452;2023-07-24T07:51:43;94639.77;;;21.75;80.97
59329;BME280;45100;46.926;7.452;2023-07-24T07:54:14;94632.00;;;21.86;79.72
59329;BME280;45100;46.926;7.452;2023-07-24T07:56:44;94632.39;;;21.92;79.48
59329;BME280;45100;46.926;7.452;2023-07-24T07:59:15;94635.16;;;21.97;78.57
59329;BME280;45100;46.926;7.452;2023-07-24T08:01:46;94634.82;;;22.02;78.31
59329;BME280;45100;46.926;7.452;2023-07-24T08:04:15;94617.23;;;22.01;77.97
59329;BME280;45100;46.926;7.452;2023-07-24T08:06:46;94618.43;;;21.97;78.80
59329;BME280;45100;46.926;7.452;2023-07-24T08:09:18;94610.12;;;22.00;80.66
59329;BME280;45100;46.926;7.452;2023-07-24T08:14:21;94582.12;;;22.20;78.47
59329;BME280;45100;46.926;7.452;2023-07-24T08:16:50;94579.55;;;22.29;78.87
59329;BME280;45100;46.926;7.452;2023-07-24T08:19:21;94559.00;;;22.41;78.77
59329;BME280;45100;46.926;7.452;2023-07-24T08:21:51;94590.12;;;22.55;77.25
59329;BME280;45100;46.926;7.452;2023-07-24T08:26:56;94540.47;;;22.90;77.80
59329;BME280;45100;46.926;7.452;2023-07-24T08:29:25;94543.62;;;22.98;77.27
59329;BME280;45100;46.926;7.452;2023-07-24T08:31:56;94549.97;;;23.00;74.90
59329;BME280;45100;46.926;7.452;2023-07-24T08:34:27;94558.10;;;22.99;75.65
59329;BME280;45100;46.926;7.452;2023-07-24T08:36:57;94533.66;;;22.99;74.30
59329;BME280;45100;46.926;7.452;2023-07-24T08:39:28;94522.84;;;23.00;74.01
59329;BME280;45100;46.926;7.452;2023-07-24T08:41:59;94538.55;;;23.11;73.69
59329;BME280;45100;46.926;7.452;2023-07-24T08:44:31;94545.34;;;23.26;72.54
59329;BME280;45100;46.926;7.452;2023-07-24T08:47:01;94552.22;;;23.35;72.80
59329;BME280;45100;46.926;7.452;2023-07-24T08:49:31;94554.00;;;23.41;73.34
59329;BME280;45100;46.926;7.452;2023-07-24T08:52:02;94558.34;;;23.49;74.45
59329;BME280;45100;46.926;7.452;2023-07-24T08:57:06;94577.77;;;23.72;70.62
59329;BME280;45100;46.926;7.452;2023-07-24T08:59:36;94580.61;;;23.76;66.47
59329;BME280;45100;46.926;7.452;2023-07-24T09:04:39;94586.81;;;23.45;69.81
59329;BME280;45100;46.926;7.452;2023-07-24T09:07:11;94583.36;;;23.34;71.18
59329;BME280;45100;46.926;7.452;2023-07-24T09:09:41;94590.52;;;23.25;71.67
59329;BME280;45100;46.926;7.452;2023-07-24T09:12:14;94587.34;;;23.20;69.54
59329;BME280;45100;46.926;7.452;2023-07-24T09:14:42;94578.84;;;23.13;66.86
59329;BME280;45100;46.926;7.452;2023-07-24T09:17:12;94567.78;;;23.05;68.85
59329;BME280;45100;46.926;7.452;2023-07-24T09:19:44;94565.06;;;23.01;68.42
59329;BME280;45100;46.926;7.452;2023-07-24T09:22:15;94551.53;;;23.01;69.37
59329;BME280;45100;46.926;7.452;2023-07-24T09:24:51;94535.78;;;23.09;69.08
59329;BME280;45100;46.926;7.452;2023-07-24T09:27:15;94548.70;;;23.18;70.71
59329;BME280;45100;46.926;7.452;2023-07-24T09:29:46;94545.06;;;23.29;71.05
59329;BME280;45100;46.926;7.452;2023-07-24T09:32:19;94545.57;;;23.42;68.83
59329;BME280;45100;46.926;7.452;2023-07-24T09:34:46;94565.31;;;23.52;68.11
59329;BME280;45100;46.926;7.452;2023-07-24T09:37:23;94569.62;;;23.64;68.55
59329;BME280;45100;46.926;7.452;2023-07-24T09:39:47;94576.22;;;23.75;67.23
59329;BME280;45100;46.926;7.452;2023-07-24T09:42:18;94583.34;;;23.76;67.56
59329;BME280;45100;46.926;7.452;2023-07-24T09:44:49;94609.31;;;23.69;66.87
59329;BME280;45100;46.926;7.452;2023-07-24T09:47:19;94608.14;;;23.68;69.52
59329;BME280;45100;46.926;7.452;2023-07-24T09:52:24;94612.16;;;23.70;69.16
59329;BME280;45100;46.926;7.452;2023-07-24T09:57:28;94609.38;;;23.66;68.83
59329;BME280;45100;46.926;7.452;2023-07-24T09:59:57;94606.20;;;23.66;68.43
59329;BME280;45100;46.926;7.452;2023-07-24T10:02:28;94593.78;;;23.62;68.17
59329;BME280;45100;46.926;7.452;2023-07-24T10:04:58;94588.92;;;23.64;68.41
59329;BME280;45100;46.926;7.452;2023-07-24T10:10:03;94588.43;;;23.93;68.08
59329;BME280;45100;46.926;7.452;2023-07-24T10:12:34;94600.23;;;24.10;66.67
59329;BME280;45100;46.926;7.452;2023-07-24T10:15:05;94598.22;;;24.24;65.45
59329;BME280;45100;46.926;7.452;2023-07-24T10:17:38;94596.08;;;24.32;65.74
59329;BME280;45100;46.926;7.452;2023-07-24T10:20:06;94620.84;;;24.49;65.79
59329;BME280;45100;46.926;7.452;2023-07-24T10:22:36;94617.43;;;24.73;66.18
59329;BME280;45100;46.926;7.452;2023-07-24T10:25:07;94641.30;;;24.97;64.38
59329;BME280;45100;46.926;7.452;2023-07-24T10:27:44;94655.02;;;25.02;63.80
59329;BME280;45100;46.926;7.452;2023-07-24T10:30:08;94640.77;;;24.98;62.74
59329;BME280;45100;46.926;7.452;2023-07-24T10:32:46;94625.45;;;24.90;60.71
59329;BME280;45100;46.926;7.452;2023-07-24T10:35:08;94621.89;;;24.82;61.39
59329;BME280;45100;46.926;7.452;2023-07-24T10:37:38;94618.78;;;24.74;62.84
59329;BME280;45100;46.926;7.452;2023-07-24T10:40:20;94600.88;;;24.61;62.27
59329;BME280;45100;46.926;7.452;2023-07-24T10:42:39;94591.17;;;24.49;63.19
59329;BME280;45100;46.926;7.452;2023-07-24T10:45:11;94590.27;;;24.40;63.46
59329;BME280;45100;46.926;7.452;2023-07-24T10:47:40;94605.08;;;24.34;64.12
59329;BME280;45100;46.926;7.452;2023-07-24T10:50:11;94612.59;;;24.26;65.10
59329;BME280;45100;46.926;7.452;2023-07-24T10:52:41;94610.16;;;24.25;66.58
59329;BME280;45100;46.926;7.452;2023-07-24T10:55:12;94620.27;;;24.22;65.57
59329;BME280;45100;46.926;7.452;2023-07-24T10:57:42;94622.81;;;24.23;66.79
59329;BME280;45100;46.926;7.452;2023-07-24T11:00:14;94617.67;;;24.28;65.67
59329;BME280;45100;46.926;7.452;2023-07-24T11:02:43;94592.84;;;24.31;65.12
59329;BME280;45100;46.926;7.452;2023-07-24T11:05:14;94576.16;;;24.33;65.80
59329;BME280;45100;46.926;7.452;2023-07-24T11:07:45;94592.61;;;24.38;65.89
59329;BME280;45100;46.926;7.452;2023-07-24T11:10:16;94597.62;;;24.41;64.48
59329;BME280;45100;46.926;7.452;2023-07-24T11:12:47;94603.06;;;24.43;65.59
59329;BME280;45100;46.926;7.452;2023-07-24T11:15:25;94596.80;;;24.47;66.26
59329;BME280;45100;46.926;7.452;2023-07-24T11:17:49;94612.05;;;24.56;66.19
59329;BME280;45100;46.926;7.452;2023-07-24T11:22:50;94596.42;;;24.94;66.08
59329;BME280;45100;46.926;7.452;2023-07-24T11:25:21;94595.41;;;25.18;65.31
59329;BME280;45100;46.926;7.452;2023-07-24T11:27:52;94589.66;;;25.39;64.71
59329;BME280;45100;46.926;7.452;2023-07-24T11:30:22;94583.69;;;25.51;63.04
59329;BME280;45100;46.926;7.452;2023-07-24T11:32:53;94577.83;;;25.53;61.76
59329;BME280;45100;46.926;7.452;2023-07-24T11:35:26;94570.09;;;25.56;62.12
59329;BME280;45100;46.926;7.452;2023-07-24T11:37:54;94561.72;;;25.65;62.47
59329;BME280;45100;46.926;7.452;2023-07-24T11:40:39;94555.67;;;25.73;61.79
59329;BME280;45100;46.926;7.452;2023-07-24T11:42:55;94557.88;;;25.85;62.55
59329;BME280;45100;46.926;7.452;2023-07-24T11:45:25;94553.38;;;25.95;60.69
59329;BME280;45100;46.926;7.452;2023-07-24T11:47:57;94555.07;;;26.04;59.46
59329;BME280;45100;46.926;7.452;2023-07-24T11:50:26;94540.94;;;26.14;57.02
59329;BME280;45100;46.926;7.452;2023-07-24T11:52:57;94530.30;;;26.18;56.04
59329;BME280;45100;46.926;7.452;2023-07-24T11:58:05;94522.73;;;26.22;57.04
59329;BME280;45100;46.926;7.452;2023-07-24T12:00:35;94519.38;;;26.35;55.00
59329;BME280;45100;46.926;7.452;2023-07-24T12:03:08;94517.56;;;26.43;53.05
59329;BME280;45100;46.926;7.452;2023-07-24T12:05:37;94511.70;;;26.42;54.14
59329;BME280;45100;46.926;7.452;2023-07-24T12:08:07;94504.91;;;26.34;51.52
59329;BME280;45100;46.926;7.452;2023-07-24T12:10:38;94503.41;;;26.26;52.31
59329;BME280;45100;46.926;7.452;2023-07-24T12:15:39;94487.71;;;26.21;52.03
59329;BME280;45100;46.926;7.452;2023-07-24T12:18:10;94482.77;;;26.21;52.39
59329;BME280;45100;46.926;7.452;2023-07-24T12:20:41;94477.71;;;26.16;51.96
59329;BME280;45100;46.926;7.452;2023-07-24T12:23:12;94474.93;;;26.09;51.63
59329;BME280;45100;46.926;7.452;2023-07-24T12:25:42;94468.39;;;26.01;52.09
59329;BME280;45100;46.926;7.452;2023-07-24T12:28:13;94465.55;;;25.97;52.51
59329;BME280;45100;46.926;7.452;2023-07-24T12:33:17;94465.78;;;26.04;50.89
59329;BME280;45100;46.926;7.452;2023-07-24T12:35:46;94471.87;;;26.15;51.72
59329;BME280;45100;46.926;7.452;2023-07-24T12:38:17;94467.70;;;26.24;51.27
59329;BME280;45100;46.926;7.452;2023-07-24T12:40:48;94458.41;;;26.33;52.90
59329;BME280;45100;46.926;7.452;2023-07-24T12:43:19;94449.42;;;26.43;50.19
59329;BME280;45100;46.926;7.452;2023-07-24T12:45:50;94439.73;;;26.45;49.02
59329;BME280;45100;46.926;7.452;2023-07-24T12:48:20;94443.91;;;26.36;48.60
59329;BME280;45100;46.926;7.452;2023-07-24T12:50:52;94446.92;;;26.24;49.96
59329;BME280;45100;46.926;7.452;2023-07-24T12:53:22;94433.94;;;26.18;49.27
59329;BME280;45100;46.926;7.452;2023-07-24T12:55:53;94434.75;;;26.13;50.35
59329;BME280;45100;46.926;7.452;2023-07-24T12:58:23;94427.28;;;26.07;50.74
59329;BME280;45100;46.926;7.452;2023-07-24T13:00:54;94434.41;;;26.04;50.86
59329;BME280;45100;46.926;7.452;2023-07-24T13:03:25;94428.84;;;25.99;52.25
59329;BME280;45100;46.926;7.452;2023-07-24T13:05:56;94423.28;;;25.88;51.19
59329;BME280;45100;46.926;7.452;2023-07-24T13:08:26;94405.99;;;25.67;52.18
59329;BME280;45100;46.926;7.452;2023-07-24T13:10:57;94406.54;;;25.49;52.97
59329;BME280;45100;46.926;7.452;2023-07-24T13:13:28;94427.81;;;25.36;53.59
59329;BME280;45100;46.926;7.452;2023-07-24T13:15:58;94428.65;;;25.26;54.25
59329;BME280;45100;46.926;7.452;2023-07-24T13:18:29;94417.91;;;25.15;54.72
59329;BME280;45100;46.926;7.452;2023-07-24T13:21:00;94418.70;;;25.03;54.63
59329;BME280;45100;46.926;7.452;2023-07-24T13:23:31;94429.47;;;24.87;54.06
59329;BME280;45100;46.926;7.452;2023-07-24T13:26:01;94433.77;;;24.73;56.15
59329;BME280;45100;46.926;7.452;2023-07-24T13:28:32;94411.30;;;24.60;55.07
59329;BME280;45100;46.926;7.452;2023-07-24T13:31:17;94428.83;;;24.43;54.00
59329;BME280;45100;46.926;7.452;2023-07-24T13:33:34;94461.05;;;24.26;56.99
59329;BME280;45100;46.926;7.452;2023-07-24T13:36:04;94479.06;;;24.14;59.09
59329;BME280;45100;46.926;7.452;2023-07-24T13:38:35;94518.27;;;24.07;61.43
59329;BME280;45100;46.926;7.452;2023-07-24T13:41:06;94513.61;;;24.07;61.05
59329;BME280;45100;46.926;7.452;2023-07-24T13:43:36;94516.84;;;24.16;60.13
59329;BME280;45100;46.926;7.452;2023-07-24T13:46:09;94525.66;;;24.23;59.09
59329;BME280;45100;46.926;7.452;2023-07-24T13:48:38;94521.13;;;24.30;58.92
59329;BME280;45100;46.926;7.452;2023-07-24T13:51:09;94509.02;;;24.35;57.27
59329;BME280;45100;46.926;7.452;2023-07-24T13:53:38;94484.97;;;24.38;57.26